createdAt,value
2022-08-11T00:01:50.528Z,1.30
2022-08-11T00:04:18.752Z,1.50
2022-08-11T00:06:46.984Z,1.20
2022-08-11T00:09:18.269Z,1.70
2022-08-11T00:11:46.826Z,2.10
2022-08-11T00:14:20.024Z,1.33
2022-08-11T00:17:16.481Z,1.17
2022-08-11T00:20:15.463Z,1.20
2022-08-11T00:22:38.627Z,1.50
2022-08-11T00:25:13.162Z,1.23
2022-08-11T00:27:41.854Z,1.20
2022-08-11T00:30:09.955Z,1.10
2022-08-11T00:32:41.633Z,1.60
2022-08-11T00:35:51.454Z,1.30
2022-08-11T00:38:00.280Z,1.33
2022-08-11T00:40:34.741Z,1.30
2022-08-11T00:43:20.659Z,1.83
2022-08-11T00:46:03.118Z,1.77
2022-08-11T00:48:35.497Z,1.50
2022-08-11T00:51:26.396Z,1.43
2022-08-11T00:54:28.360Z,1.07
2022-08-11T00:57:37.747Z,1.67
2022-08-11T01:00:13.361Z,1.20
2022-08-11T01:02:40.678Z,1.27
2022-08-11T01:05:11.430Z,1.43
2022-08-11T01:08:00.613Z,1.30
2022-08-11T01:10:30.652Z,1.00
2022-08-11T01:13:32.508Z,1.30
2022-08-11T01:16:12.240Z,1.07
2022-08-11T01:18:48.460Z,1.47
2022-08-11T01:21:31.164Z,1.10
2022-08-11T01:24:15.051Z,1.23
2022-08-11T01:26:45.346Z,1.57
2022-08-11T01:29:31.632Z,1.53
2022-08-11T01:32:17.657Z,1.33
2022-08-11T01:35:04.812Z,1.07
2022-08-11T01:37:51.112Z,1.43
2022-08-11T01:40:36.997Z,1.33
2022-08-11T01:43:23.153Z,1.17
2022-08-11T01:46:22.891Z,1.10
2022-08-11T01:49:29.120Z,1.27
2022-08-11T01:52:05.986Z,1.10
2022-08-11T01:54:36.043Z,1.10
2022-08-11T01:57:06.432Z,1.40
2022-08-11T01:59:36.738Z,1.40
2022-08-11T02:02:20.551Z,1.40
2022-08-11T02:05:03.833Z,1.50
2022-08-11T02:07:36.745Z,1.20
2022-08-11T02:10:36.496Z,1.47
2022-08-11T02:13:15.496Z,1.40
2022-08-11T02:15:47.045Z,1.60
2022-08-11T02:18:21.952Z,1.30
2022-08-11T02:21:19.269Z,1.43
2022-08-11T02:24:06.706Z,1.73
2022-08-11T02:26:37.912Z,1.77
2022-08-11T02:29:08.263Z,1.43
2022-08-11T02:32:14.934Z,1.80
2022-08-11T02:35:06.108Z,1.13
2022-08-11T02:37:33.420Z,1.37
2022-08-11T02:40:00.723Z,1.23
2022-08-11T02:42:38.793Z,1.60
2022-08-11T02:45:13.451Z,1.13
2022-08-11T02:48:15.266Z,1.20
2022-08-11T02:50:53.802Z,1.27
2022-08-11T02:53:31.636Z,1.40
2022-08-11T02:56:01.692Z,1.30
2022-08-11T02:58:35.478Z,1.37
2022-08-11T03:01:14.840Z,1.20
2022-08-11T03:03:58.495Z,1.13
2022-08-11T03:06:30.763Z,1.50
2022-08-11T03:09:07.153Z,1.30
2022-08-11T03:12:11.794Z,1.20
2022-08-11T03:15:36.067Z,1.50
2022-08-11T03:18:18.762Z,2.27
2022-08-11T03:20:59.856Z,1.50
2022-08-11T03:23:45.851Z,1.20
2022-08-11T03:26:13.142Z,1.63
2022-08-11T03:28:43.512Z,2.20
2022-08-11T03:31:28.945Z,1.20
2022-08-11T03:34:19.389Z,1.50
2022-08-11T03:37:15.481Z,2.03
2022-08-11T03:39:56.118Z,1.23
2022-08-11T03:42:30.726Z,1.70
2022-08-11T03:45:00.880Z,1.90
2022-08-11T03:47:52.554Z,1.23
2022-08-11T03:50:24.772Z,1.83
2022-08-11T03:53:07.383Z,1.50
2022-08-11T03:55:50.427Z,1.10
2022-08-11T03:58:29.712Z,1.50
2022-08-11T04:00:59.870Z,1.47
2022-08-11T04:03:43.194Z,1.30
2022-08-11T04:06:16.497Z,1.40
2022-08-11T04:08:43.803Z,1.10
2022-08-11T04:11:17.238Z,1.23
2022-08-11T04:14:22.094Z,1.50
2022-08-11T04:17:09.686Z,1.17
2022-08-11T04:19:36.960Z,1.67
2022-08-11T04:22:16.023Z,1.67
2022-08-11T04:25:02.263Z,1.40
2022-08-11T04:27:44.500Z,1.63
2022-08-11T04:30:20.080Z,1.93
2022-08-11T04:32:47.369Z,1.80
2022-08-11T04:35:24.148Z,1.47
2022-08-11T04:38:06.910Z,1.40
2022-08-11T04:40:53.040Z,1.77
2022-08-11T04:43:37.917Z,2.13
2022-08-11T04:46:45.494Z,1.70
2022-08-11T04:49:40.765Z,1.80
2022-08-11T04:52:37.737Z,1.80
2022-08-11T04:55:43.267Z,1.73
2022-08-11T04:58:42.231Z,1.57
2022-08-11T05:01:40.438Z,1.80
2022-08-11T05:04:27.767Z,1.73
2022-08-11T05:07:11.865Z,1.80
2022-08-11T05:09:51.490Z,1.40
2022-08-11T05:12:37.911Z,1.57
2022-08-11T05:15:24.358Z,1.80
2022-08-11T05:18:28.103Z,2.07
2022-08-11T05:21:15.645Z,1.50
2022-08-11T05:24:13.203Z,2.30
2022-08-11T05:27:03.889Z,1.80
2022-08-11T05:30:15.839Z,1.50
2022-08-11T05:33:04.456Z,1.50
2022-08-11T05:36:02.338Z,2.13
2022-08-11T05:38:43.640Z,1.73
2022-08-11T05:41:33.457Z,2.33
2022-08-11T05:44:22.320Z,1.90
2022-08-11T05:47:08.946Z,1.70
2022-08-11T05:49:56.685Z,1.90
2022-08-11T05:52:45.127Z,1.87
2022-08-11T05:55:34.494Z,1.50
2022-08-11T05:58:06.615Z,1.60
2022-08-11T06:00:42.778Z,1.80
2022-08-11T06:03:11.049Z,1.88
2022-08-11T06:05:44.140Z,1.83
2022-08-11T06:08:13.134Z,1.90
2022-08-11T06:10:42.245Z,1.63
2022-08-11T06:13:10.512Z,1.53
2022-08-11T06:15:45.339Z,2.20
2022-08-11T06:18:13.538Z,2.17
2022-08-11T06:20:51.886Z,2.20
2022-08-11T06:23:20.445Z,2.27
2022-08-11T06:25:48.282Z,2.20
2022-08-11T06:28:20.731Z,2.17
2022-08-11T06:30:48.980Z,1.60
2022-08-11T06:33:16.421Z,1.50
2022-08-11T06:35:45.681Z,1.93
2022-08-11T06:38:17.899Z,1.47
2022-08-11T06:41:05.231Z,2.10
2022-08-11T06:43:37.601Z,2.07
2022-08-11T06:46:08.905Z,2.07
2022-08-11T06:48:39.740Z,1.53
2022-08-11T06:51:13.654Z,2.57
2022-08-11T06:53:56.317Z,2.43
2022-08-11T07:00:15.094Z,2.17
2022-08-11T07:03:01.306Z,1.70
2022-08-11T07:05:46.688Z,1.77
2022-08-11T07:08:50.883Z,1.83
2022-08-11T07:11:36.862Z,2.20
2022-08-11T07:14:23.903Z,1.80
2022-08-11T07:16:51.707Z,2.10
2022-08-11T07:19:41.459Z,1.67
2022-08-11T07:22:29.270Z,1.70
2022-08-11T07:25:18.947Z,1.90
2022-08-11T07:28:11.051Z,1.90
2022-08-11T07:30:40.946Z,2.00
2022-08-11T07:33:09.495Z,1.70
2022-08-11T07:35:39.250Z,2.20
2022-08-11T07:38:08.201Z,2.00
2022-08-11T07:40:36.606Z,1.87
2022-08-11T07:43:04.457Z,1.70
2022-08-11T07:45:50.858Z,1.70
2022-08-11T07:48:37.513Z,1.57
2022-08-11T07:51:23.543Z,1.93
2022-08-11T07:54:03.025Z,1.77
2022-08-11T07:56:42.970Z,1.43
2022-08-11T08:00:02.665Z,1.97
2022-08-11T08:02:46.377Z,1.67
2022-08-11T08:05:34.102Z,1.87
2022-08-11T08:08:22.081Z,1.40
2022-08-11T08:11:09.163Z,1.70
2022-08-11T08:13:55.557Z,1.33
2022-08-11T08:16:41.703Z,2.03
2022-08-11T08:19:12.290Z,1.50
2022-08-11T08:21:39.841Z,1.73
2022-08-11T08:24:07.583Z,1.50
2022-08-11T08:26:53.956Z,1.60
2022-08-11T08:29:40.325Z,1.60
2022-08-11T08:32:08.202Z,1.50
2022-08-11T08:34:36.546Z,1.40
2022-08-11T08:37:45.088Z,1.40
2022-08-11T08:39:53.583Z,1.50
2022-08-11T08:42:24.814Z,1.50
2022-08-11T08:44:55.797Z,1.30
2022-08-11T08:47:43.065Z,1.20
2022-08-11T08:50:16.607Z,1.20
2022-08-11T08:52:48.443Z,1.53
2022-08-11T08:55:19.842Z,1.40
2022-08-11T08:57:49.206Z,1.13
2022-08-11T09:00:22.294Z,1.40
2022-08-11T09:02:50.843Z,1.50
2022-08-11T09:05:18.854Z,1.20
2022-08-11T09:07:47.578Z,1.30
2022-08-11T09:10:17.452Z,1.30
2022-08-11T09:12:44.933Z,1.43
2022-08-11T09:15:13.164Z,1.30
2022-08-11T09:17:42.051Z,1.40
2022-08-11T09:20:12.422Z,1.20
2022-08-11T09:23:54.621Z,1.20
2022-08-11T09:26:13.536Z,1.27
2022-08-11T09:28:42.653Z,1.23
2022-08-11T09:31:11.935Z,1.30
2022-08-11T09:33:39.955Z,1.37
2022-08-11T09:36:29.378Z,1.20
2022-08-11T09:39:16.015Z,1.50
2022-08-11T09:42:01.844Z,1.30
2022-08-11T09:44:48.860Z,1.43
2022-08-11T09:47:19.348Z,1.20
2022-08-11T09:49:48.877Z,1.30
2022-08-11T09:52:17.030Z,1.30
2022-08-11T09:54:48.274Z,1.30
2022-08-11T09:57:37.934Z,1.00
2022-08-11T10:00:12.479Z,1.20
2022-08-11T10:02:45.834Z,1.10
2022-08-11T10:05:34.346Z,1.27
2022-08-11T10:08:01.986Z,1.10
2022-08-11T10:10:30.239Z,1.30
2022-08-11T10:13:00.074Z,1.30
2022-08-11T10:15:34.826Z,1.20
2022-08-11T10:18:26.405Z,1.40
2022-08-11T10:20:57.608Z,1.30
2022-08-11T10:24:00.656Z,1.20
2022-08-11T10:26:52.158Z,1.07
2022-08-11T10:29:44.576Z,1.10
2022-08-11T10:32:59.005Z,1.30
2022-08-11T10:35:27.961Z,1.30
2022-08-11T10:38:06.518Z,1.30
2022-08-11T10:40:38.009Z,1.30
2022-08-11T10:43:07.550Z,1.53
2022-08-11T10:45:55.013Z,1.30
2022-08-11T10:48:24.737Z,1.17
2022-08-11T10:51:11.479Z,1.50
2022-08-11T10:53:59.135Z,1.50
2022-08-11T10:56:46.913Z,1.20
2022-08-11T10:59:15.541Z,1.40
2022-08-11T11:01:44.227Z,1.30
2022-08-11T11:04:16.265Z,1.10
2022-08-11T11:06:56.684Z,1.50
2022-08-11T11:09:29.916Z,1.30
2022-08-11T11:12:18.659Z,1.30
2022-08-11T11:15:06.913Z,1.00
2022-08-11T11:17:56.128Z,1.30
2022-08-11T11:20:36.764Z,1.30
2022-08-11T11:23:24.644Z,1.30
2022-08-11T11:26:11.794Z,1.10
2022-08-11T11:28:59.401Z,1.30
2022-08-11T11:31:32.823Z,1.27
2022-08-11T11:34:15.813Z,1.20
2022-08-11T11:36:50.681Z,1.00
2022-08-11T11:39:19.659Z,1.10
2022-08-11T11:41:47.524Z,1.10
2022-08-11T11:44:15.541Z,1.23
2022-08-11T11:46:45.926Z,1.10
2022-08-11T11:49:17.105Z,1.30
2022-08-11T11:51:45.647Z,1.10
2022-08-11T11:54:17.544Z,1.30
2022-08-11T11:56:45.531Z,1.27
2022-08-11T11:59:31.639Z,1.43
2022-08-11T12:01:59.445Z,1.10
2022-08-11T12:04:27.458Z,1.23
2022-08-11T12:07:15.274Z,1.27
2022-08-11T12:09:42.891Z,1.20
2022-08-11T12:12:29.347Z,1.20
2022-08-11T12:14:56.983Z,1.30
2022-08-11T12:17:24.688Z,1.37
2022-08-11T12:19:52.850Z,1.43
2022-08-11T12:22:39.177Z,1.10
2022-08-11T12:25:25.811Z,1.20
2022-08-11T12:27:56.659Z,1.37
2022-08-11T12:30:24.104Z,1.30
2022-08-11T12:32:51.933Z,1.40
2022-08-11T12:35:19.421Z,1.17
2022-08-11T12:37:50.309Z,1.30
2022-08-11T12:41:12.053Z,1.33
2022-08-11T12:43:57.217Z,1.40
2022-08-11T12:46:27.871Z,1.30
2022-08-11T12:49:17.902Z,1.10
2022-08-11T12:52:12.449Z,1.60
2022-08-11T12:54:52.712Z,1.30
2022-08-11T12:57:44.994Z,1.30
2022-08-11T13:00:31.350Z,1.43
2022-08-11T13:03:18.150Z,1.33
2022-08-11T13:05:46.953Z,1.43
2022-08-11T13:08:15.250Z,1.30
2022-08-11T13:11:02.028Z,1.30
2022-08-11T13:13:53.810Z,1.40
2022-08-11T13:16:17.872Z,1.60
2022-08-11T13:18:46.114Z,1.60
2022-08-11T13:21:20.856Z,1.40
2022-08-11T13:24:00.930Z,1.57
2022-08-11T13:26:47.254Z,1.30
2022-08-11T13:29:20.482Z,1.30
2022-08-11T13:31:48.370Z,1.40
2022-08-11T13:34:16.738Z,1.30
2022-08-11T13:36:44.615Z,1.43
2022-08-11T13:39:13.177Z,1.40
2022-08-11T13:41:44.046Z,1.43
2022-08-11T13:44:12.632Z,1.40
2022-08-11T13:46:44.337Z,1.57
2022-08-11T13:49:12.175Z,1.50
2022-08-11T13:51:40.149Z,1.70
2022-08-11T13:54:10.659Z,1.27
2022-08-11T13:56:43.573Z,1.30
2022-08-11T13:59:11.203Z,1.50
2022-08-11T14:02:22.607Z,1.20
2022-08-11T14:04:54.791Z,1.40
2022-08-11T14:07:23.509Z,1.30
2022-08-11T14:09:56.640Z,1.57
2022-08-11T14:12:44.662Z,1.30
2022-08-11T14:15:25.227Z,1.47
2022-08-11T14:17:55.496Z,1.30
2022-08-11T14:20:38.594Z,1.17
2022-08-11T14:23:10.858Z,1.27
2022-08-11T14:26:00.345Z,1.00
2022-08-11T14:28:33.533Z,1.30
2022-08-11T14:31:05.237Z,1.30
2022-08-11T14:34:00.007Z,1.30
2022-08-11T14:36:22.115Z,1.43
2022-08-11T14:38:49.625Z,1.40
2022-08-11T14:41:37.562Z,1.93
2022-08-11T14:44:44.436Z,1.30
2022-08-11T14:47:23.258Z,1.20
2022-08-11T14:50:00.688Z,1.10
2022-08-11T14:52:40.241Z,1.30
2022-08-11T14:55:27.107Z,1.10
2022-08-11T14:57:57.067Z,1.20
2022-08-11T15:00:25.549Z,1.20
2022-08-11T15:03:13.936Z,1.30
2022-08-11T15:05:52.385Z,1.33
2022-08-11T15:08:45.396Z,1.33
2022-08-11T15:11:32.248Z,1.20
2022-08-11T15:14:03.958Z,1.00
2022-08-11T15:17:07.156Z,1.07
2022-08-11T15:19:40.534Z,1.17
2022-08-11T15:22:28.590Z,1.60
2022-08-11T15:24:56.661Z,1.20
2022-08-11T15:27:43.537Z,1.27
2022-08-11T15:30:33.199Z,1.20
2022-08-11T15:33:27.620Z,1.37
2022-08-11T15:36:14.912Z,1.17
2022-08-11T15:38:54.959Z,1.40
2022-08-11T15:41:43.411Z,1.20
2022-08-11T15:45:00.567Z,1.27
2022-08-11T15:47:19.227Z,1.47
2022-08-11T15:50:11.533Z,1.30
2022-08-11T15:52:40.487Z,1.10
2022-08-11T15:55:08.991Z,1.30
2022-08-11T15:57:56.631Z,1.20
2022-08-11T16:00:43.226Z,1.43
2022-08-11T16:04:06.232Z,1.30
2022-08-11T16:06:18.336Z,1.33
2022-08-11T16:08:46.616Z,1.30
2022-08-11T16:11:16.140Z,1.20
2022-08-11T16:13:43.948Z,1.30
2022-08-11T16:16:15.158Z,1.20
2022-08-11T16:19:02.348Z,1.00
2022-08-11T16:21:36.201Z,1.47
2022-08-11T16:27:02.411Z,1.10
2022-08-11T16:27:13.050Z,1.10
2022-08-11T16:29:45.721Z,1.17
2022-08-11T16:32:19.163Z,1.00
2022-08-11T16:35:07.545Z,1.13
2022-08-11T16:37:56.183Z,1.20
2022-08-11T16:40:24.132Z,0.90
2022-08-11T16:43:11.867Z,1.20
2022-08-11T16:46:01.197Z,1.10
2022-08-11T16:48:37.159Z,1.13
2022-08-11T16:51:11.241Z,1.30
2022-08-11T16:54:03.224Z,1.10
2022-08-11T16:56:42.288Z,1.30
2022-08-11T16:59:15.996Z,1.30
2022-08-11T17:01:54.593Z,1.10
2022-08-11T17:04:58.007Z,1.23
2022-08-11T17:07:45.561Z,1.10
2022-08-11T17:10:57.637Z,1.30
2022-08-11T17:13:32.545Z,1.40
2022-08-11T17:16:08.334Z,1.10
2022-08-11T17:18:54.632Z,1.30
2022-08-11T17:21:29.816Z,1.20
2022-08-11T17:24:02.747Z,1.13
2022-08-11T17:26:58.881Z,1.20
2022-08-11T17:29:54.668Z,1.27
2022-08-11T17:32:56.253Z,1.20
2022-08-11T17:35:33.388Z,1.10
2022-08-11T17:38:06.445Z,1.30
2022-08-11T17:40:37.046Z,1.20
2022-08-11T17:43:23.964Z,1.20
2022-08-11T17:46:10.517Z,1.20
2022-08-11T17:48:47.623Z,1.30
2022-08-11T17:51:38.920Z,1.50
2022-08-11T17:54:26.435Z,1.30
2022-08-11T17:57:20.496Z,1.20
2022-08-11T17:59:53.442Z,1.27
2022-08-11T18:02:42.172Z,1.20
2022-08-11T18:05:13.491Z,1.30
2022-08-11T18:08:04.038Z,1.30
2022-08-11T18:10:52.081Z,1.20
2022-08-11T18:13:39.517Z,1.30
2022-08-11T18:16:26.170Z,1.30
2022-08-11T18:19:12.711Z,1.20
2022-08-11T18:22:13.078Z,1.13
2022-08-11T18:25:08.231Z,0.97
2022-08-11T18:27:55.423Z,1.50
2022-08-11T18:30:42.441Z,1.13
2022-08-11T18:36:40.988Z,1.70
2022-08-11T18:39:30.627Z,1.20
2022-08-11T18:42:26.646Z,1.40
2022-08-11T18:45:18.666Z,1.40
2022-08-11T18:48:06.643Z,1.30
2022-08-11T18:51:28.086Z,1.30
2022-08-11T18:54:03.862Z,1.40
2022-08-11T18:56:50.415Z,1.47
2022-08-11T18:59:37.877Z,1.33
2022-08-11T19:02:24.379Z,1.30
2022-08-11T19:05:11.223Z,1.23
2022-08-11T19:07:58.329Z,1.30
2022-08-11T19:10:44.466Z,1.30
2022-08-11T19:13:30.584Z,1.20
2022-08-11T19:16:16.795Z,1.20
2022-08-11T19:19:04.427Z,1.20
2022-08-11T19:21:50.557Z,1.40
2022-08-11T19:24:37.414Z,1.20
2022-08-11T19:27:24.025Z,1.07
2022-08-11T19:30:14.018Z,1.37
2022-08-11T19:33:01.429Z,1.30
2022-08-11T19:35:47.827Z,1.53
2022-08-11T19:38:34.581Z,1.37
2022-08-11T19:41:51.780Z,1.20
2022-08-11T19:44:27.080Z,1.30
2022-08-11T19:47:13.381Z,1.50
2022-08-11T19:50:01.401Z,1.20
2022-08-11T19:52:48.452Z,1.30
2022-08-11T19:55:35.859Z,1.40
2022-08-11T19:58:22.375Z,1.20
2022-08-11T20:01:08.645Z,1.20
2022-08-11T20:03:55.058Z,1.17
2022-08-11T20:06:41.463Z,1.10
2022-08-11T20:09:27.938Z,1.30
2022-08-11T20:12:34.595Z,1.00
2022-08-11T20:15:22.047Z,1.30
2022-08-11T20:18:08.382Z,1.20
2022-08-11T20:20:55.167Z,1.30
2022-08-11T20:23:42.367Z,1.40
2022-08-11T20:26:31.303Z,1.30
2022-08-11T20:29:18.529Z,1.37
2022-08-11T20:32:06.667Z,1.13
2022-08-11T20:34:57.433Z,1.33
2022-08-11T20:37:48.858Z,1.20
2022-08-11T20:40:37.572Z,1.20
2022-08-11T20:44:06.400Z,1.30
2022-08-11T20:46:32.687Z,1.27
2022-08-11T20:49:21.360Z,1.20
2022-08-11T20:52:08.028Z,1.00
2022-08-11T20:54:56.474Z,1.33
2022-08-11T20:57:59.903Z,1.20
2022-08-11T21:00:49.890Z,1.20
2022-08-11T21:03:45.317Z,1.17
2022-08-11T21:06:43.115Z,1.30
2022-08-11T21:10:01.148Z,1.30
2022-08-11T21:12:36.689Z,1.20
2022-08-11T21:15:47.251Z,1.20
2022-08-11T21:18:30.756Z,1.20
2022-08-11T21:21:21.526Z,1.20
2022-08-11T21:24:09.773Z,1.03
2022-08-11T21:27:03.657Z,1.23
2022-08-11T21:29:52.182Z,1.10
2022-08-11T21:32:39.200Z,1.10
2022-08-11T21:35:25.596Z,1.10
2022-08-11T21:38:12.236Z,1.20
2022-08-11T21:41:01.816Z,1.20
2022-08-11T21:43:48.399Z,1.30
2022-08-11T21:46:36.418Z,1.07
2022-08-11T21:49:22.977Z,1.27
2022-08-11T21:52:09.040Z,1.40
2022-08-11T21:54:55.081Z,0.93
2022-08-11T21:57:48.184Z,1.03
2022-08-11T22:00:36.738Z,1.27
2022-08-11T22:03:23.611Z,1.17
2022-08-11T22:06:10.021Z,1.03
2022-08-11T22:08:56.229Z,1.20
2022-08-11T22:11:42.150Z,1.00
2022-08-11T22:14:28.051Z,0.93
2022-08-11T22:17:13.787Z,1.10
2022-08-11T22:20:01.056Z,1.40
2022-08-11T22:22:52.972Z,1.00
2022-08-11T22:25:51.585Z,1.17
2022-08-11T22:28:40.658Z,1.40
2022-08-11T22:31:27.640Z,1.40
2022-08-11T22:34:13.771Z,1.10
2022-08-11T22:37:01.200Z,1.20
2022-08-11T22:40:02.234Z,1.10
2022-08-11T22:42:49.826Z,1.13
2022-08-11T22:45:35.801Z,1.07
2022-08-11T22:48:24.240Z,1.07
2022-08-11T22:51:10.787Z,1.03
2022-08-11T22:53:59.070Z,1.10
2022-08-11T22:56:49.906Z,1.10
2022-08-11T22:59:36.912Z,1.10
2022-08-11T23:02:24.033Z,1.20
2022-08-11T23:05:10.482Z,1.10
2022-08-11T23:07:56.891Z,1.37
2022-08-11T23:10:43.446Z,1.00
2022-08-11T23:13:30.140Z,1.10
2022-08-11T23:16:16.474Z,1.30
2022-08-11T23:19:02.644Z,0.97
2022-08-11T23:21:50.784Z,0.97
2022-08-11T23:24:37.616Z,1.17
2022-08-11T23:27:24.563Z,0.90
2022-08-11T23:30:13.698Z,1.40
2022-08-11T23:33:04.930Z,1.17
2022-08-11T23:35:57.875Z,0.93
2022-08-11T23:38:45.629Z,1.00
2022-08-11T23:41:35.284Z,1.23
2022-08-11T23:44:21.745Z,0.90
2022-08-11T23:47:12.978Z,1.00
2022-08-11T23:49:59.638Z,1.10
2022-08-11T23:52:47.163Z,1.40
2022-08-11T23:55:33.641Z,1.00
2022-08-11T23:58:20.048Z,1.23
